sensor_id;sensor_type;location;lat;lon;timestamp;temperature;humidity
5592;DHT22;2818;49.790;9.958;2022-09-12T00:02:02;14.90;36.30
5592;DHT22;2818;49.790;9.958;2022-09-12T00:04:30;14.90;24.40
5592;DHT22;2818;49.790;9.958;2022-09-12T00:06:57;14.90;28.10
5592;DHT22;2818;49.790;9.958;2022-09-12T00:09:24;14.80;42.70
5592;DHT22;2818;49.790;9.958;2022-09-12T00:11:50;14.80;56.20
5592;DHT22;2818;49.790;9.958;2022-09-12T00:14:18;14.80;68.00
5592;DHT22;2818;49.790;9.958;2022-09-12T00:16:45;14.70;73.20
5592;DHT22;2818;49.790;9.958;2022-09-12T00:19:14;14.70;79.50
5592;DHT22;2818;49.790;9.958;2022-09-12T00:21:41;14.70;77.60
5592;DHT22;2818;49.790;9.958;2022-09-12T00:24:09;14.80;54.90
5592;DHT22;2818;49.790;9.958;2022-09-12T00:26:38;14.70;46.90
5592;DHT22;2818;49.790;9.958;2022-09-12T00:29:05;14.70;45.10
5592;DHT22;2818;49.790;9.958;2022-09-12T00:31:33;14.70;54.90
5592;DHT22;2818;49.790;9.958;2022-09-12T00:34:00;14.60;71.60
5592;DHT22;2818;49.790;9.958;2022-09-12T00:36:30;14.60;74.00
5592;DHT22;2818;49.790;9.958;2022-09-12T00:38:57;14.60;85.80
5592;DHT22;2818;49.790;9.958;2022-09-12T00:41:33;14.60;68.60
5592;DHT22;2818;49.790;9.958;2022-09-12T00:46:46;14.50;84.80
5592;DHT22;2818;49.790;9.958;2022-09-12T00:51:48;14.50;65.50
5592;DHT22;2818;49.790;9.958;2022-09-12T00:54:21;14.50;62.00
5592;DHT22;2818;49.790;9.958;2022-09-12T00:56:50;14.40;85.80
5592;DHT22;2818;49.790;9.958;2022-09-12T00:59:24;14.40;87.70
5592;DHT22;2818;49.790;9.958;2022-09-12T01:01:52;14.30;91.40
5592;DHT22;2818;49.790;9.958;2022-09-12T01:04:21;14.30;92.50
5592;DHT22;2818;49.790;9.958;2022-09-12T01:06:49;14.30;93.80
5592;DHT22;2818;49.790;9.958;2022-09-12T01:09:21;14.30;90.20
5592;DHT22;2818;49.790;9.958;2022-09-12T01:11:49;14.20;84.70
5592;DHT22;2818;49.790;9.958;2022-09-12T01:14:18;14.20;87.00
5592;DHT22;2818;49.790;9.958;2022-09-12T01:16:46;14.20;83.80
5592;DHT22;2818;49.790;9.958;2022-09-12T01:19:46;14.20;92.80
5592;DHT22;2818;49.790;9.958;2022-09-12T01:30:51;14.10;99.90
5592;DHT22;2818;49.790;9.958;2022-09-12T01:39:01;14.00;99.90
5592;DHT22;2818;49.790;9.958;2022-09-12T01:41:41;14.00;99.90
5592;DHT22;2818;49.790;9.958;2022-09-12T01:44:20;14.00;99.90
5592;DHT22;2818;49.790;9.958;2022-09-12T01:47:07;14.00;99.90
5592;DHT22;2818;49.790;9.958;2022-09-12T01:52:26;14.00;99.90
5592;DHT22;2818;49.790;9.958;2022-09-12T01:54:56;14.00;99.90
5592;DHT22;2818;49.790;9.958;2022-09-12T01:57:31;14.00;99.90
5592;DHT22;2818;49.790;9.958;2022-09-12T02:00:08;14.00;99.90
5592;DHT22;2818;49.790;9.958;2022-09-12T02:02:43;14.00;99.90
5592;DHT22;2818;49.790;9.958;2022-09-12T02:05:18;14.10;99.90
5592;DHT22;2818;49.790;9.958;2022-09-12T02:07:54;14.10;99.90
5592;DHT22;2818;49.790;9.958;2022-09-12T02:10:25;14.10;99.90
5592;DHT22;2818;49.790;9.958;2022-09-12T02:13:10;14.00;99.90
5592;DHT22;2818;49.790;9.958;2022-09-12T02:15:47;14.10;99.90
5592;DHT22;2818;49.790;9.958;2022-09-12T02:18:17;14.10;99.90
5592;DHT22;2818;49.790;9.958;2022-09-12T02:20:46;14.10;99.90
5592;DHT22;2818;49.790;9.958;2022-09-12T02:23:25;14.10;99.90
5592;DHT22;2818;49.790;9.958;2022-09-12T02:26:00;14.20;99.90
5592;DHT22;2818;49.790;9.958;2022-09-12T02:28:31;14.20;99.90
5592;DHT22;2818;49.790;9.958;2022-09-12T02:31:04;14.10;99.90
5592;DHT22;2818;49.790;9.958;2022-09-12T02:39:01;14.20;99.90
5592;DHT22;2818;49.790;9.958;2022-09-12T02:41:28;14.10;99.90
5592;DHT22;2818;49.790;9.958;2022-09-12T02:43:55;14.20;99.90
5592;DHT22;2818;49.790;9.958;2022-09-12T02:46:31;14.20;99.90
5592;DHT22;2818;49.790;9.958;2022-09-12T02:49:00;14.20;99.90
5592;DHT22;2818;49.790;9.958;2022-09-12T02:51:27;14.10;99.90
5592;DHT22;2818;49.790;9.958;2022-09-12T02:53:54;14.10;99.90
5592;DHT22;2818;49.790;9.958;2022-09-12T02:56:30;14.10;99.90
5592;DHT22;2818;49.790;9.958;2022-09-12T02:59:07;14.10;99.90
5592;DHT22;2818;49.790;9.958;2022-09-12T03:04:25;14.10;99.90
5592;DHT22;2818;49.790;9.958;2022-09-12T03:07:33;14.00;99.90
5592;DHT22;2818;49.790;9.958;2022-09-12T03:10:08;14.00;99.90
5592;DHT22;2818;49.790;9.958;2022-09-12T03:21:12;14.10;99.90
5592;DHT22;2818;49.790;9.958;2022-09-12T03:24:06;14.10;99.90
5592;DHT22;2818;49.790;9.958;2022-09-12T03:29:16;14.00;99.90
5592;DHT22;2818;49.790;9.958;2022-09-12T03:32:02;14.00;99.90
5592;DHT22;2818;49.790;9.958;2022-09-12T03:34:29;14.00;99.90
5592;DHT22;2818;49.790;9.958;2022-09-12T03:36:56;14.00;99.90
5592;DHT22;2818;49.790;9.958;2022-09-12T03:39:24;14.00;99.90
5592;DHT22;2818;49.790;9.958;2022-09-12T03:41:53;14.00;99.90
5592;DHT22;2818;49.790;9.958;2022-09-12T03:44:21;14.00;99.90
5592;DHT22;2818;49.790;9.958;2022-09-12T03:46:48;14.00;99.90
5592;DHT22;2818;49.790;9.958;2022-09-12T03:49:16;14.00;99.90
5592;DHT22;2818;49.790;9.958;2022-09-12T03:51:43;14.10;99.90
5592;DHT22;2818;49.790;9.958;2022-09-12T03:54:11;14.00;99.90
5592;DHT22;2818;49.790;9.958;2022-09-12T03:56:38;14.00;99.90
5592;DHT22;2818;49.790;9.958;2022-09-12T03:59:06;14.00;99.90
5592;DHT22;2818;49.790;9.958;2022-09-12T04:01:34;14.00;99.90
5592;DHT22;2818;49.790;9.958;2022-09-12T04:04:01;14.10;99.90
5592;DHT22;2818;49.790;9.958;2022-09-12T04:06:28;14.00;99.90
5592;DHT22;2818;49.790;9.958;2022-09-12T04:08:55;14.00;99.90
5592;DHT22;2818;49.790;9.958;2022-09-12T04:11:22;14.00;99.90
5592;DHT22;2818;49.790;9.958;2022-09-12T04:13:49;14.00;99.90
5592;DHT22;2818;49.790;9.958;2022-09-12T04:16:17;14.00;99.90
5592;DHT22;2818;49.790;9.958;2022-09-12T04:18:44;14.00;99.90
5592;DHT22;2818;49.790;9.958;2022-09-12T04:21:17;14.00;99.90
5592;DHT22;2818;49.790;9.958;2022-09-12T04:23:45;14.00;99.90
5592;DHT22;2818;49.790;9.958;2022-09-12T04:26:13;13.90;99.90
5592;DHT22;2818;49.790;9.958;2022-09-12T04:28:41;14.00;99.90
5592;DHT22;2818;49.790;9.958;2022-09-12T04:31:11;14.00;99.90
5592;DHT22;2818;49.790;9.958;2022-09-12T04:33:39;14.00;99.90
5592;DHT22;2818;49.790;9.958;2022-09-12T04:36:08;14.00;99.90
5592;DHT22;2818;49.790;9.958;2022-09-12T04:38:36;14.00;99.90
5592;DHT22;2818;49.790;9.958;2022-09-12T04:41:15;13.90;99.90
5592;DHT22;2818;49.790;9.958;2022-09-12T04:43:42;13.90;99.90
5592;DHT22;2818;49.790;9.958;2022-09-12T04:46:14;13.90;99.90
5592;DHT22;2818;49.790;9.958;2022-09-12T04:48:42;13.90;99.90
5592;DHT22;2818;49.790;9.958;2022-09-12T04:53:38;14.00;99.90
5592;DHT22;2818;49.790;9.958;2022-09-12T04:56:07;14.00;99.90
5592;DHT22;2818;49.790;9.958;2022-09-12T04:58:35;13.90;99.90
5592;DHT22;2818;49.790;9.958;2022-09-12T05:01:11;13.90;99.90
5592;DHT22;2818;49.790;9.958;2022-09-12T05:03:40;13.90;99.90
5592;DHT22;2818;49.790;9.958;2022-09-12T05:06:15;13.90;99.90
5592;DHT22;2818;49.790;9.958;2022-09-12T05:08:43;13.90;99.90
5592;DHT22;2818;49.790;9.958;2022-09-12T05:11:13;13.90;99.90
5592;DHT22;2818;49.790;9.958;2022-09-12T05:13:41;13.90;99.90
5592;DHT22;2818;49.790;9.958;2022-09-12T05:16:10;13.90;99.90
5592;DHT22;2818;49.790;9.958;2022-09-12T05:18:38;13.90;99.90
5592;DHT22;2818;49.790;9.958;2022-09-12T05:21:07;13.90;99.90
5592;DHT22;2818;49.790;9.958;2022-09-12T05:23:35;13.90;99.90
5592;DHT22;2818;49.790;9.958;2022-09-12T05:26:04;13.90;99.90
5592;DHT22;2818;49.790;9.958;2022-09-12T05:28:35;13.90;99.90
5592;DHT22;2818;49.790;9.958;2022-09-12T05:31:05;13.90;99.90
5592;DHT22;2818;49.790;9.958;2022-09-12T05:33:36;13.90;99.90
5592;DHT22;2818;49.790;9.958;2022-09-12T05:36:05;13.90;99.90
5592;DHT22;2818;49.790;9.958;2022-09-12T05:38:36;13.80;99.90
5592;DHT22;2818;49.790;9.958;2022-09-12T05:41:11;13.80;99.90
5592;DHT22;2818;49.790;9.958;2022-09-12T05:43:46;13.80;99.90
5592;DHT22;2818;49.790;9.958;2022-09-12T05:46:18;13.80;99.90
5592;DHT22;2818;49.790;9.958;2022-09-12T05:48:46;13.80;99.90
5592;DHT22;2818;49.790;9.958;2022-09-12T05:51:27;13.90;99.90
5592;DHT22;2818;49.790;9.958;2022-09-12T05:53:58;13.90;99.90
5592;DHT22;2818;49.790;9.958;2022-09-12T05:56:30;13.90;99.90
5592;DHT22;2818;49.790;9.958;2022-09-12T05:58:59;13.90;99.90
5592;DHT22;2818;49.790;9.958;2022-09-12T06:01:29;14.00;99.90
5592;DHT22;2818;49.790;9.958;2022-09-12T06:03:57;14.00;99.90
5592;DHT22;2818;49.790;9.958;2022-09-12T06:06:29;14.00;99.90
5592;DHT22;2818;49.790;9.958;2022-09-12T06:08:59;14.00;99.90
5592;DHT22;2818;49.790;9.958;2022-09-12T06:11:28;14.00;99.90
5592;DHT22;2818;49.790;9.958;2022-09-12T06:13:56;14.10;99.90
5592;DHT22;2818;49.790;9.958;2022-09-12T06:16:25;14.10;99.90
5592;DHT22;2818;49.790;9.958;2022-09-12T06:18:59;14.10;99.90
5592;DHT22;2818;49.790;9.958;2022-09-12T06:21:27;14.10;99.90
5592;DHT22;2818;49.790;9.958;2022-09-12T06:23:54;14.20;99.90
5592;DHT22;2818;49.790;9.958;2022-09-12T06:26:21;14.20;99.90
5592;DHT22;2818;49.790;9.958;2022-09-12T06:28:52;14.20;99.90
5592;DHT22;2818;49.790;9.958;2022-09-12T06:31:27;14.30;99.90
5592;DHT22;2818;49.790;9.958;2022-09-12T06:33:59;14.30;99.90
5592;DHT22;2818;49.790;9.958;2022-09-12T06:36:28;14.30;99.90
5592;DHT22;2818;49.790;9.958;2022-09-12T06:38:58;14.40;99.90
5592;DHT22;2818;49.790;9.958;2022-09-12T06:41:27;14.40;99.90
5592;DHT22;2818;49.790;9.958;2022-09-12T06:43:55;14.40;99.90
5592;DHT22;2818;49.790;9.958;2022-09-12T06:46:22;14.40;99.90
5592;DHT22;2818;49.790;9.958;2022-09-12T06:48:49;14.40;99.90
5592;DHT22;2818;49.790;9.958;2022-09-12T06:51:18;14.50;99.90
5592;DHT22;2818;49.790;9.958;2022-09-12T06:53:48;14.50;99.90
5592;DHT22;2818;49.790;9.958;2022-09-12T06:56:18;14.50;99.90
5592;DHT22;2818;49.790;9.958;2022-09-12T06:58:46;14.50;99.90
5592;DHT22;2818;49.790;9.958;2022-09-12T07:01:15;14.50;99.90
5592;DHT22;2818;49.790;9.958;2022-09-12T07:03:47;14.50;99.90
5592;DHT22;2818;49.790;9.958;2022-09-12T07:06:15;14.60;90.80
5592;DHT22;2818;49.790;9.958;2022-09-12T07:08:43;14.70;75.80
5592;DHT22;2818;49.790;9.958;2022-09-12T07:13:40;14.80;90.50
5592;DHT22;2818;49.790;9.958;2022-09-12T07:16:08;14.80;88.60
5592;DHT22;2818;49.790;9.958;2022-09-12T07:18:37;14.90;71.20
5592;DHT22;2818;49.790;9.958;2022-09-12T07:21:10;15.00;29.80
5592;DHT22;2818;49.790;9.958;2022-09-12T07:23:38;15.00;1.00
5592;DHT22;2818;49.790;9.958;2022-09-12T07:26:06;15.00;1.00
5592;DHT22;2818;49.790;9.958;2022-09-12T07:28:34;15.00;1.00
5592;DHT22;2818;49.790;9.958;2022-09-12T07:31:07;15.10;1.00
5592;DHT22;2818;49.790;9.958;2022-09-12T07:33:35;15.00;1.00
5592;DHT22;2818;49.790;9.958;2022-09-12T07:36:04;15.00;1.00
5592;DHT22;2818;49.790;9.958;2022-09-12T07:38:32;15.10;1.00
5592;DHT22;2818;49.790;9.958;2022-09-12T07:40:58;15.10;1.00
5592;DHT22;2818;49.790;9.958;2022-09-12T07:43:27;15.10;1.00
5592;DHT22;2818;49.790;9.958;2022-09-12T07:45:57;15.10;1.00
5592;DHT22;2818;49.790;9.958;2022-09-12T07:48:24;15.20;1.00
5592;DHT22;2818;49.790;9.958;2022-09-12T07:51:02;15.30;1.00
5592;DHT22;2818;49.790;9.958;2022-09-12T07:53:31;15.40;1.00
5592;DHT22;2818;49.790;9.958;2022-09-12T07:55:58;15.40;1.00
5592;DHT22;2818;49.790;9.958;2022-09-12T07:58:25;15.50;1.00
5592;DHT22;2818;49.790;9.958;2022-09-12T08:00:52;15.50;1.00
5592;DHT22;2818;49.790;9.958;2022-09-12T08:03:19;15.60;1.00
5592;DHT22;2818;49.790;9.958;2022-09-12T08:05:46;15.60;1.00
5592;DHT22;2818;49.790;9.958;2022-09-12T08:08:13;15.70;1.00
5592;DHT22;2818;49.790;9.958;2022-09-12T08:10:40;15.80;1.00
5592;DHT22;2818;49.790;9.958;2022-09-12T08:13:07;15.80;1.00
5592;DHT22;2818;49.790;9.958;2022-09-12T08:15:36;15.90;1.00
5592;DHT22;2818;49.790;9.958;2022-09-12T08:18:03;15.90;1.00
5592;DHT22;2818;49.790;9.958;2022-09-12T08:20:30;15.80;1.00
5592;DHT22;2818;49.790;9.958;2022-09-12T08:22:57;15.60;1.00
5592;DHT22;2818;49.790;9.958;2022-09-12T08:25:24;15.70;1.00
5592;DHT22;2818;49.790;9.958;2022-09-12T08:27:51;15.70;1.00
5592;DHT22;2818;49.790;9.958;2022-09-12T08:30:18;15.80;1.00
5592;DHT22;2818;49.790;9.958;2022-09-12T08:32:45;15.90;1.00
5592;DHT22;2818;49.790;9.958;2022-09-12T08:35:12;16.00;1.00
5592;DHT22;2818;49.790;9.958;2022-09-12T08:37:40;16.20;1.00
5592;DHT22;2818;49.790;9.958;2022-09-12T08:40:14;16.30;1.00
5592;DHT22;2818;49.790;9.958;2022-09-12T08:43:05;16.40;1.00
5592;DHT22;2818;49.790;9.958;2022-09-12T08:45:46;16.50;1.00
5592;DHT22;2818;49.790;9.958;2022-09-12T08:48:16;16.70;1.00
5592;DHT22;2818;49.790;9.958;2022-09-12T08:50:43;16.60;1.00
5592;DHT22;2818;49.790;9.958;2022-09-12T08:53:19;16.70;1.00
5592;DHT22;2818;49.790;9.958;2022-09-12T08:55:57;16.80;1.00
5592;DHT22;2818;49.790;9.958;2022-09-12T08:58:27;17.00;1.00
5592;DHT22;2818;49.790;9.958;2022-09-12T09:01:03;17.30;1.00
5592;DHT22;2818;49.790;9.958;2022-09-12T09:06:56;17.50;1.00
5592;DHT22;2818;49.790;9.958;2022-09-12T09:12:24;17.70;99.90
5592;DHT22;2818;49.790;9.958;2022-09-12T09:15:33;17.60;1.00
5592;DHT22;2818;49.790;9.958;2022-09-12T09:18:19;17.80;93.90
5592;DHT22;2818;49.790;9.958;2022-09-12T09:20:51;17.90;99.90
5592;DHT22;2818;49.790;9.958;2022-09-12T09:23:43;18.00;99.90
5592;DHT22;2818;49.790;9.958;2022-09-12T09:28:46;18.70;99.90
5592;DHT22;2818;49.790;9.958;2022-09-12T09:31:16;19.10;1.00
5592;DHT22;2818;49.790;9.958;2022-09-12T09:33:47;19.50;1.00
5592;DHT22;2818;49.790;9.958;2022-09-12T09:42:25;20.70;99.90
5592;DHT22;2818;49.790;9.958;2022-09-12T09:44:55;22.40;1.00
5592;DHT22;2818;49.790;9.958;2022-09-12T09:47:24;24.30;99.90
5592;DHT22;2818;49.790;9.958;2022-09-12T09:49:51;26.70;99.90
5592;DHT22;2818;49.790;9.958;2022-09-12T09:52:25;28.60;18.80
5592;DHT22;2818;49.790;9.958;2022-09-12T09:54:59;30.60;1.00
5592;DHT22;2818;49.790;9.958;2022-09-12T10:00:35;32.80;1.00
5592;DHT22;2818;49.790;9.958;2022-09-12T10:08:25;34.80;1.00
5592;DHT22;2818;49.790;9.958;2022-09-12T10:10:54;35.20;1.00
5592;DHT22;2818;49.790;9.958;2022-09-12T10:13:38;35.50;1.00
5592;DHT22;2818;49.790;9.958;2022-09-12T10:16:18;35.80;1.00
5592;DHT22;2818;49.790;9.958;2022-09-12T10:18:45;35.70;1.00
5592;DHT22;2818;49.790;9.958;2022-09-12T10:24:13;36.10;1.00
5592;DHT22;2818;49.790;9.958;2022-09-12T10:26:57;36.00;1.00
5592;DHT22;2818;49.790;9.958;2022-09-12T10:29:33;35.70;1.00
5592;DHT22;2818;49.790;9.958;2022-09-12T10:32:05;35.80;1.00
5592;DHT22;2818;49.790;9.958;2022-09-12T10:34:55;36.00;1.00
5592;DHT22;2818;49.790;9.958;2022-09-12T10:37:31;36.00;1.00
5592;DHT22;2818;49.790;9.958;2022-09-12T10:40:00;35.80;1.00
5592;DHT22;2818;49.790;9.958;2022-09-12T10:47:45;37.10;1.00
5592;DHT22;2818;49.790;9.958;2022-09-12T10:50:30;37.10;1.00
5592;DHT22;2818;49.790;9.958;2022-09-12T11:01:28;36.80;1.00
5592;DHT22;2818;49.790;9.958;2022-09-12T11:09:45;35.10;1.00
5592;DHT22;2818;49.790;9.958;2022-09-12T11:34:20;36.80;1.00
5592;DHT22;2818;49.790;9.958;2022-09-12T11:37:13;36.60;1.00
5592;DHT22;2818;49.790;9.958;2022-09-12T11:39:45;37.00;1.00
5592;DHT22;2818;49.790;9.958;2022-09-12T11:42:19;37.30;1.00
5592;DHT22;2818;49.790;9.958;2022-09-12T11:44:55;37.10;1.00
5592;DHT22;2818;49.790;9.958;2022-09-12T11:47:27;36.90;1.00
5592;DHT22;2818;49.790;9.958;2022-09-12T11:49:55;36.70;1.00
5592;DHT22;2818;49.790;9.958;2022-09-12T11:52:25;35.60;1.00
5592;DHT22;2818;49.790;9.958;2022-09-12T12:00:18;33.50;1.00
5592;DHT22;2818;49.790;9.958;2022-09-12T12:08:42;29.80;1.00
5592;DHT22;2818;49.790;9.958;2022-09-12T12:11:12;29.60;1.00
5592;DHT22;2818;49.790;9.958;2022-09-12T12:13:53;29.70;1.00
5592;DHT22;2818;49.790;9.958;2022-09-12T12:19:05;29.80;1.00
5592;DHT22;2818;49.790;9.958;2022-09-12T12:29:38;30.90;1.00
5592;DHT22;2818;49.790;9.958;2022-09-12T12:40:30;31.80;1.00
5592;DHT22;2818;49.790;9.958;2022-09-12T12:42:59;32.20;1.00
5592;DHT22;2818;49.790;9.958;2022-09-12T12:48:00;32.30;1.00
5592;DHT22;2818;49.790;9.958;2022-09-12T12:50:33;31.80;1.00
5592;DHT22;2818;49.790;9.958;2022-09-12T12:53:06;31.30;1.00
5592;DHT22;2818;49.790;9.958;2022-09-12T12:58:29;30.70;1.00
5592;DHT22;2818;49.790;9.958;2022-09-12T13:01:16;30.90;1.00
5592;DHT22;2818;49.790;9.958;2022-09-12T13:03:55;30.90;1.00
5592;DHT22;2818;49.790;9.958;2022-09-12T13:06:38;31.20;1.00
5592;DHT22;2818;49.790;9.958;2022-09-12T13:09:33;31.70;1.00
5592;DHT22;2818;49.790;9.958;2022-09-12T13:12:07;31.70;1.00
5592;DHT22;2818;49.790;9.958;2022-09-12T13:17:21;32.10;1.00
5592;DHT22;2818;49.790;9.958;2022-09-12T13:19:49;32.00;1.00
5592;DHT22;2818;49.790;9.958;2022-09-12T13:22:45;32.10;1.00
5592;DHT22;2818;49.790;9.958;2022-09-12T13:25:29;32.70;1.00
5592;DHT22;2818;49.790;9.958;2022-09-12T13:30:30;33.30;1.00
5592;DHT22;2818;49.790;9.958;2022-09-12T13:34:04;34.20;1.00
5592;DHT22;2818;49.790;9.958;2022-09-12T13:43:48;36.20;1.00
5592;DHT22;2818;49.790;9.958;2022-09-12T13:46:27;36.40;1.00
5592;DHT22;2818;49.790;9.958;2022-09-12T13:49:37;36.30;1.00
5592;DHT22;2818;49.790;9.958;2022-09-12T13:52:13;36.20;1.00
5592;DHT22;2818;49.790;9.958;2022-09-12T13:54:43;36.80;1.00
5592;DHT22;2818;49.790;9.958;2022-09-12T13:57:37;36.70;1.00
5592;DHT22;2818;49.790;9.958;2022-09-12T14:00:17;36.30;1.00
5592;DHT22;2818;49.790;9.958;2022-09-12T14:02:48;36.10;1.00
5592;DHT22;2818;49.790;9.958;2022-09-12T14:05:24;35.00;1.00
5592;DHT22;2818;49.790;9.958;2022-09-12T14:07:55;34.70;1.00
5592;DHT22;2818;49.790;9.958;2022-09-12T14:10:27;34.60;1.00
5592;DHT22;2818;49.790;9.958;2022-09-12T14:12:55;34.10;1.00
5592;DHT22;2818;49.790;9.958;2022-09-12T14:15:25;33.80;1.00
5592;DHT22;2818;49.790;9.958;2022-09-12T14:18:00;33.60;1.00
5592;DHT22;2818;49.790;9.958;2022-09-12T14:20:31;33.60;1.00
5592;DHT22;2818;49.790;9.958;2022-09-12T14:23:12;33.60;1.00
5592;DHT22;2818;49.790;9.958;2022-09-12T14:25:42;33.40;1.00
5592;DHT22;2818;49.790;9.958;2022-09-12T14:28:15;33.20;1.00
5592;DHT22;2818;49.790;9.958;2022-09-12T14:31:05;33.10;1.00
5592;DHT22;2818;49.790;9.958;2022-09-12T14:33:49;32.80;1.00
5592;DHT22;2818;49.790;9.958;2022-09-12T14:36:26;32.10;1.00
5592;DHT22;2818;49.790;9.958;2022-09-12T14:39:01;32.00;1.00
5592;DHT22;2818;49.790;9.958;2022-09-12T14:41:35;31.60;1.00
5592;DHT22;2818;49.790;9.958;2022-09-12T14:44:06;31.30;1.00
5592;DHT22;2818;49.790;9.958;2022-09-12T14:46:36;30.80;1.00
5592;DHT22;2818;49.790;9.958;2022-09-12T14:51:58;30.20;1.00
5592;DHT22;2818;49.790;9.958;2022-09-12T14:56:58;29.80;1.00
5592;DHT22;2818;49.790;9.958;2022-09-12T14:59:39;29.50;1.00
5592;DHT22;2818;49.790;9.958;2022-09-12T15:02:23;29.30;1.00
5592;DHT22;2818;49.790;9.958;2022-09-12T15:04:53;29.20;1.00
5592;DHT22;2818;49.790;9.958;2022-09-12T15:07:39;29.20;1.00
5592;DHT22;2818;49.790;9.958;2022-09-12T15:10:21;29.10;1.00
5592;DHT22;2818;49.790;9.958;2022-09-12T15:13:02;29.00;1.00
5592;DHT22;2818;49.790;9.958;2022-09-12T15:15:31;29.00;1.00
5592;DHT22;2818;49.790;9.958;2022-09-12T15:17:58;29.00;1.00
5592;DHT22;2818;49.790;9.958;2022-09-12T15:20:42;28.90;1.00
5592;DHT22;2818;49.790;9.958;2022-09-12T15:23:15;28.70;1.00
5592;DHT22;2818;49.790;9.958;2022-09-12T15:25:43;28.50;1.00
5592;DHT22;2818;49.790;9.958;2022-09-12T15:28:31;28.50;1.00
5592;DHT22;2818;49.790;9.958;2022-09-12T15:31:06;28.50;1.00
5592;DHT22;2818;49.790;9.958;2022-09-12T15:33:34;28.50;1.00
5592;DHT22;2818;49.790;9.958;2022-09-12T15:36:01;28.50;1.00
5592;DHT22;2818;49.790;9.958;2022-09-12T15:38:28;28.50;1.00
5592;DHT22;2818;49.790;9.958;2022-09-12T15:40:55;28.50;1.00
5592;DHT22;2818;49.790;9.958;2022-09-12T15:43:23;28.40;1.00
5592;DHT22;2818;49.790;9.958;2022-09-12T15:45:52;28.30;1.00
5592;DHT22;2818;49.790;9.958;2022-09-12T15:48:19;28.30;1.00
5592;DHT22;2818;49.790;9.958;2022-09-12T15:50:46;28.30;1.00
5592;DHT22;2818;49.790;9.958;2022-09-12T15:53:15;28.20;1.00
5592;DHT22;2818;49.790;9.958;2022-09-12T15:55:42;28.20;1.00
5592;DHT22;2818;49.790;9.958;2022-09-12T15:58:10;28.20;1.00
5592;DHT22;2818;49.790;9.958;2022-09-12T16:00:36;28.00;1.00
5592;DHT22;2818;49.790;9.958;2022-09-12T16:03:04;28.00;1.00
5592;DHT22;2818;49.790;9.958;2022-09-12T16:05:31;27.90;1.00
5592;DHT22;2818;49.790;9.958;2022-09-12T16:07:58;27.70;1.00
5592;DHT22;2818;49.790;9.958;2022-09-12T16:10:28;27.60;1.00
5592;DHT22;2818;49.790;9.958;2022-09-12T16:12:56;27.60;1.00
5592;DHT22;2818;49.790;9.958;2022-09-12T16:15:24;27.60;1.00
5592;DHT22;2818;49.790;9.958;2022-09-12T16:17:51;27.60;1.00
5592;DHT22;2818;49.790;9.958;2022-09-12T16:20:19;27.60;1.00
5592;DHT22;2818;49.790;9.958;2022-09-12T16:22:47;27.50;1.00
5592;DHT22;2818;49.790;9.958;2022-09-12T16:25:14;27.40;1.00
5592;DHT22;2818;49.790;9.958;2022-09-12T16:27:41;27.40;1.00
5592;DHT22;2818;49.790;9.958;2022-09-12T16:30:09;27.30;1.00
5592;DHT22;2818;49.790;9.958;2022-09-12T16:32:36;27.20;1.00
5592;DHT22;2818;49.790;9.958;2022-09-12T16:35:03;27.20;1.00
5592;DHT22;2818;49.790;9.958;2022-09-12T16:37:31;27.10;1.00
5592;DHT22;2818;49.790;9.958;2022-09-12T16:40:01;27.10;1.00
5592;DHT22;2818;49.790;9.958;2022-09-12T16:42:28;27.00;1.00
5592;DHT22;2818;49.790;9.958;2022-09-12T16:44:55;26.80;1.00
5592;DHT22;2818;49.790;9.958;2022-09-12T16:47:22;26.70;1.00
5592;DHT22;2818;49.790;9.958;2022-09-12T16:49:49;26.60;1.00
5592;DHT22;2818;49.790;9.958;2022-09-12T16:52:17;26.50;1.00
5592;DHT22;2818;49.790;9.958;2022-09-12T16:54:44;26.40;1.00
5592;DHT22;2818;49.790;9.958;2022-09-12T16:57:12;26.30;1.00
5592;DHT22;2818;49.790;9.958;2022-09-12T16:59:39;26.20;1.00
5592;DHT22;2818;49.790;9.958;2022-09-12T17:02:06;26.10;1.00
5592;DHT22;2818;49.790;9.958;2022-09-12T17:04:34;26.00;1.00
5592;DHT22;2818;49.790;9.958;2022-09-12T17:07:00;25.90;1.00
5592;DHT22;2818;49.790;9.958;2022-09-12T17:09:27;25.70;1.00
5592;DHT22;2818;49.790;9.958;2022-09-12T17:11:55;25.60;1.00
5592;DHT22;2818;49.790;9.958;2022-09-12T17:14:23;25.40;1.00
5592;DHT22;2818;49.790;9.958;2022-09-12T17:16:50;25.30;1.00
5592;DHT22;2818;49.790;9.958;2022-09-12T17:19:25;25.20;1.00
5592;DHT22;2818;49.790;9.958;2022-09-12T17:21:54;25.00;1.00
5592;DHT22;2818;49.790;9.958;2022-09-12T17:24:21;24.90;1.00
5592;DHT22;2818;49.790;9.958;2022-09-12T17:26:49;24.80;1.00
5592;DHT22;2818;49.790;9.958;2022-09-12T17:29:17;24.70;1.00
5592;DHT22;2818;49.790;9.958;2022-09-12T17:31:44;24.60;1.00
5592;DHT22;2818;49.790;9.958;2022-09-12T17:34:12;24.40;1.00
5592;DHT22;2818;49.790;9.958;2022-09-12T17:36:44;24.30;1.00
5592;DHT22;2818;49.790;9.958;2022-09-12T17:39:13;24.10;1.00
5592;DHT22;2818;49.790;9.958;2022-09-12T17:41:40;24.00;1.00
5592;DHT22;2818;49.790;9.958;2022-09-12T17:44:10;23.80;1.00
5592;DHT22;2818;49.790;9.958;2022-09-12T17:46:38;23.70;1.00
5592;DHT22;2818;49.790;9.958;2022-09-12T17:49:09;23.70;1.00
5592;DHT22;2818;49.790;9.958;2022-09-12T17:51:37;23.50;1.00
5592;DHT22;2818;49.790;9.958;2022-09-12T17:54:13;23.40;1.00
5592;DHT22;2818;49.790;9.958;2022-09-12T17:56:43;23.30;1.00
5592;DHT22;2818;49.790;9.958;2022-09-12T17:59:17;23.30;1.00
5592;DHT22;2818;49.790;9.958;2022-09-12T18:01:44;23.20;1.00
5592;DHT22;2818;49.790;9.958;2022-09-12T18:04:30;23.10;1.00
5592;DHT22;2818;49.790;9.958;2022-09-12T18:06:57;23.00;1.00
5592;DHT22;2818;49.790;9.958;2022-09-12T18:09:26;22.90;1.00
5592;DHT22;2818;49.790;9.958;2022-09-12T18:11:54;22.80;1.00
5592;DHT22;2818;49.790;9.958;2022-09-12T18:14:22;22.70;9.00
5592;DHT22;2818;49.790;9.958;2022-09-12T18:16:49;22.70;19.70
5592;DHT22;2818;49.790;9.958;2022-09-12T18:19:17;22.60;27.80
5592;DHT22;2818;49.790;9.958;2022-09-12T18:21:44;22.50;47.10
5592;DHT22;2818;49.790;9.958;2022-09-12T18:24:11;22.40;70.20
5592;DHT22;2818;49.790;9.958;2022-09-12T18:26:38;22.30;97.80
5592;DHT22;2818;49.790;9.958;2022-09-12T18:29:06;22.30;99.90
5592;DHT22;2818;49.790;9.958;2022-09-12T18:31:33;22.20;99.90
5592;DHT22;2818;49.790;9.958;2022-09-12T18:34:00;22.20;99.90
5592;DHT22;2818;49.790;9.958;2022-09-12T18:36:29;22.10;99.90
5592;DHT22;2818;49.790;9.958;2022-09-12T18:38:57;22.00;99.90
5592;DHT22;2818;49.790;9.958;2022-09-12T18:41:25;22.00;99.90
5592;DHT22;2818;49.790;9.958;2022-09-12T18:43:59;21.90;99.90
5592;DHT22;2818;49.790;9.958;2022-09-12T18:46:28;21.90;99.90
5592;DHT22;2818;49.790;9.958;2022-09-12T18:48:56;21.80;99.90
5592;DHT22;2818;49.790;9.958;2022-09-12T18:51:25;21.80;99.90
5592;DHT22;2818;49.790;9.958;2022-09-12T18:53:59;21.70;99.90
5592;DHT22;2818;49.790;9.958;2022-09-12T18:56:28;21.60;99.90
5592;DHT22;2818;49.790;9.958;2022-09-12T18:58:59;21.50;99.90
5592;DHT22;2818;49.790;9.958;2022-09-12T19:01:32;21.50;99.90
5592;DHT22;2818;49.790;9.958;2022-09-12T19:04:00;21.40;99.90
5592;DHT22;2818;49.790;9.958;2022-09-12T19:06:35;21.40;99.90
5592;DHT22;2818;49.790;9.958;2022-09-12T19:09:03;21.30;99.90
5592;DHT22;2818;49.790;9.958;2022-09-12T19:11:38;21.30;99.90
5592;DHT22;2818;49.790;9.958;2022-09-12T19:14:06;21.30;99.90
5592;DHT22;2818;49.790;9.958;2022-09-12T19:16:33;21.20;99.90
5592;DHT22;2818;49.790;9.958;2022-09-12T19:19:00;21.20;99.90
5592;DHT22;2818;49.790;9.958;2022-09-12T19:21:30;21.20;99.90
5592;DHT22;2818;49.790;9.958;2022-09-12T19:24:03;21.10;99.90
5592;DHT22;2818;49.790;9.958;2022-09-12T19:26:31;21.00;99.90